sensor_id;sensor_type;location;lat;lon;timestamp;pressure;altitude;pressure_sealevel;temperature;humidity
30856;BME280;17570;0.000;0.000;2023-03-19T00:00:41;97629.21;;;12.30;34.04
30856;BME280;17570;0.000;0.000;2023-03-19T00:03:09;97624.95;;;12.29;34.02
30856;BME280;17570;0.000;0.000;2023-03-19T00:05:37;97635.49;;;12.27;34.04
30856;BME280;17570;0.000;0.000;2023-03-19T00:08:04;97631.81;;;12.30;33.95
30856;BME280;17570;0.000;0.000;2023-03-19T00:10:32;97629.21;;;12.30;34.02
30856;BME280;17570;0.000;0.000;2023-03-19T00:12:59;97634.54;;;12.28;34.02
30856;BME280;17570;0.000;0.000;2023-03-19T00:15:27;97628.16;;;12.32;34.27
30856;BME280;17570;0.000;0.000;2023-03-19T00:17:54;97633.59;;;12.29;34.23
30856;BME280;17570;0.000;0.000;2023-03-19T00:20:22;97631.94;;;12.28;34.40
30856;BME280;17570;0.000;0.000;2023-03-19T00:22:49;97627.56;;;12.29;34.30
30856;BME280;17570;0.000;0.000;2023-03-19T00:25:16;97624.83;;;12.30;34.58
30856;BME280;17570;0.000;0.000;2023-03-19T00:27:44;97621.30;;;12.31;34.38
30856;BME280;17570;0.000;0.000;2023-03-19T00:30:12;97618.80;;;12.30;34.40
30856;BME280;17570;0.000;0.000;2023-03-19T00:32:41;97612.77;;;12.29;34.60
30856;BME280;17570;0.000;0.000;2023-03-19T00:35:08;97617.27;;;12.27;34.36
30856;BME280;17570;0.000;0.000;2023-03-19T00:37:37;97609.47;;;12.27;34.55
30856;BME280;17570;0.000;0.000;2023-03-19T00:40:07;97602.48;;;12.28;34.60
30856;BME280;17570;0.000;0.000;2023-03-19T00:42:35;97599.87;;;12.28;34.70
30856;BME280;17570;0.000;0.000;2023-03-19T00:45:03;97603.18;;;12.30;34.75
30856;BME280;17570;0.000;0.000;2023-03-19T00:47:32;97595.62;;;12.27;34.51
30856;BME280;17570;0.000;0.000;2023-03-19T00:50:00;97591.47;;;12.24;34.64
30856;BME280;17570;0.000;0.000;2023-03-19T00:52:28;97591.34;;;12.25;34.65
30856;BME280;17570;0.000;0.000;2023-03-19T00:54:56;97595.72;;;12.25;34.69
30856;BME280;17570;0.000;0.000;2023-03-19T00:57:23;97588.04;;;12.23;34.36
30856;BME280;17570;0.000;0.000;2023-03-19T00:59:51;97585.09;;;12.28;34.41
30856;BME280;17570;0.000;0.000;2023-03-19T01:02:18;97580.70;;;12.29;34.56
30856;BME280;17570;0.000;0.000;2023-03-19T01:04:49;97582.36;;;12.30;34.40
30856;BME280;17570;0.000;0.000;2023-03-19T01:07:17;97578.70;;;12.32;34.30
30856;BME280;17570;0.000;0.000;2023-03-19T01:09:44;97571.84;;;12.31;34.49
30856;BME280;17570;0.000;0.000;2023-03-19T01:12:12;97570.17;;;12.30;34.45
30856;BME280;17570;0.000;0.000;2023-03-19T01:14:39;97575.15;;;12.33;34.48
30856;BME280;17570;0.000;0.000;2023-03-19T01:17:07;97575.63;;;12.38;34.58
30856;BME280;17570;0.000;0.000;2023-03-19T01:19:35;97576.70;;;12.36;34.44
30856;BME280;17570;0.000;0.000;2023-03-19T01:22:03;97569.46;;;12.39;34.44
30856;BME280;17570;0.000;0.000;2023-03-19T01:24:31;97563.56;;;12.37;34.70
30856;BME280;17570;0.000;0.000;2023-03-19T01:26:59;97558.95;;;12.41;34.59
30856;BME280;17570;0.000;0.000;2023-03-19T01:29:31;97574.44;;;12.42;34.49
30856;BME280;17570;0.000;0.000;2023-03-19T01:32:10;97570.28;;;12.40;34.80
30856;BME280;17570;0.000;0.000;2023-03-19T01:34:39;97567.21;;;12.35;35.03
30856;BME280;17570;0.000;0.000;2023-03-19T01:37:09;97568.77;;;12.37;35.18
30856;BME280;17570;0.000;0.000;2023-03-19T01:39:38;97573.62;;;12.42;34.95
30856;BME280;17570;0.000;0.000;2023-03-19T01:42:07;97564.98;;;12.41;35.30
30856;BME280;17570;0.000;0.000;2023-03-19T01:44:46;97571.02;;;12.42;35.41
30856;BME280;17570;0.000;0.000;2023-03-19T01:47:35;97571.23;;;12.39;35.44
30856;BME280;17570;0.000;0.000;2023-03-19T01:50:20;97566.29;;;12.36;35.58
30856;BME280;17570;0.000;0.000;2023-03-19T01:52:42;97576.20;;;12.31;35.75
30856;BME280;17570;0.000;0.000;2023-03-19T01:55:15;97576.45;;;12.39;35.80
30856;BME280;17570;0.000;0.000;2023-03-19T01:57:44;97573.48;;;12.43;35.59
30856;BME280;17570;0.000;0.000;2023-03-19T02:00:14;97566.28;;;12.47;35.44
30856;BME280;17570;0.000;0.000;2023-03-19T02:02:45;97575.87;;;12.46;35.67
30856;BME280;17570;0.000;0.000;2023-03-19T02:05:17;97576.69;;;12.47;35.44
30856;BME280;17570;0.000;0.000;2023-03-19T02:07:47;97577.64;;;12.46;35.60
30856;BME280;17570;0.000;0.000;2023-03-19T02:10:15;97572.44;;;12.46;35.75
30856;BME280;17570;0.000;0.000;2023-03-19T02:12:43;97568.66;;;12.50;35.78
30856;BME280;17570;0.000;0.000;2023-03-19T02:15:11;97571.13;;;12.51;35.92
30856;BME280;17570;0.000;0.000;2023-03-19T02:17:39;97571.95;;;12.52;35.93
30856;BME280;17570;0.000;0.000;2023-03-19T02:22:45;97568.30;;;12.55;35.55
30856;BME280;17570;0.000;0.000;2023-03-19T02:25:10;97568.99;;;12.57;35.62
30856;BME280;17570;0.000;0.000;2023-03-19T02:27:39;97574.33;;;12.55;35.89
30856;BME280;17570;0.000;0.000;2023-03-19T02:30:25;97564.84;;;12.54;35.69
30856;BME280;17570;0.000;0.000;2023-03-19T02:32:52;97568.99;;;12.57;35.56
30856;BME280;17570;0.000;0.000;2023-03-19T02:35:20;97570.66;;;12.46;35.88
30856;BME280;17570;0.000;0.000;2023-03-19T02:37:48;97561.89;;;12.47;35.57
30856;BME280;17570;0.000;0.000;2023-03-19T02:40:21;97570.53;;;12.48;35.41
30856;BME280;17570;0.000;0.000;2023-03-19T02:42:46;97563.31;;;12.51;35.28
30856;BME280;17570;0.000;0.000;2023-03-19T02:45:14;97560.84;;;12.50;35.73
30856;BME280;17570;0.000;0.000;2023-03-19T02:47:42;97562.59;;;12.49;35.83
30856;BME280;17570;0.000;0.000;2023-03-19T02:50:11;97567.80;;;12.49;35.77
30856;BME280;17570;0.000;0.000;2023-03-19T02:52:38;97561.06;;;12.47;35.63
30856;BME280;17570;0.000;0.000;2023-03-19T02:55:06;97562.13;;;12.44;35.45
30856;BME280;17570;0.000;0.000;2023-03-19T02:57:35;97562.72;;;12.48;35.74
30856;BME280;17570;0.000;0.000;2023-03-19T03:00:03;97565.32;;;12.48;35.74
30856;BME280;17570;0.000;0.000;2023-03-19T03:02:32;97569.83;;;12.46;35.59
30856;BME280;17570;0.000;0.000;2023-03-19T03:04:59;97576.82;;;12.45;35.71
30856;BME280;17570;0.000;0.000;2023-03-19T03:07:27;97577.05;;;12.42;35.44
30856;BME280;17570;0.000;0.000;2023-03-19T03:09:54;97578.00;;;12.41;35.50
30856;BME280;17570;0.000;0.000;2023-03-19T03:12:22;97581.30;;;12.43;35.34
30856;BME280;17570;0.000;0.000;2023-03-19T03:14:49;97580.47;;;12.43;35.45
30856;BME280;17570;0.000;0.000;2023-03-19T03:17:17;97572.53;;;12.44;35.69
30856;BME280;17570;0.000;0.000;2023-03-19T03:19:45;97576.22;;;12.42;35.89
30856;BME280;17570;0.000;0.000;2023-03-19T03:22:13;97570.88;;;12.43;36.05
30856;BME280;17570;0.000;0.000;2023-03-19T03:24:41;97574.31;;;12.44;36.04
30856;BME280;17570;0.000;0.000;2023-03-19T03:27:08;97575.14;;;12.44;35.78
30856;BME280;17570;0.000;0.000;2023-03-19T03:29:36;97574.22;;;12.45;35.75
30856;BME280;17570;0.000;0.000;2023-03-19T03:32:04;97569.70;;;12.47;35.46
30856;BME280;17570;0.000;0.000;2023-03-19T03:34:32;97575.87;;;12.46;35.54
30856;BME280;17570;0.000;0.000;2023-03-19T03:37:00;97575.39;;;12.41;35.53
30856;BME280;17570;0.000;0.000;2023-03-19T03:39:28;97574.67;;;12.39;35.47
30856;BME280;17570;0.000;0.000;2023-03-19T03:41:55;97573.97;;;12.37;35.31
30856;BME280;17570;0.000;0.000;2023-03-19T03:44:23;97581.05;;;12.35;35.33
30856;BME280;17570;0.000;0.000;2023-03-19T03:46:51;97575.84;;;12.35;35.40
30856;BME280;17570;0.000;0.000;2023-03-19T03:49:19;97577.75;;;12.33;35.40
30856;BME280;17570;0.000;0.000;2023-03-19T03:51:46;97580.23;;;12.35;35.66
30856;BME280;17570;0.000;0.000;2023-03-19T03:54:14;97579.41;;;12.34;35.63
30856;BME280;17570;0.000;0.000;2023-03-19T03:56:42;97578.35;;;12.37;35.86
30856;BME280;17570;0.000;0.000;2023-03-19T03:59:09;97580.13;;;12.36;35.59
30856;BME280;17570;0.000;0.000;2023-03-19T04:01:37;97577.63;;;12.35;35.46
30856;BME280;17570;0.000;0.000;2023-03-19T04:04:05;97575.97;;;12.34;35.69
30856;BME280;17570;0.000;0.000;2023-03-19T04:06:33;97577.53;;;12.36;35.93
30856;BME280;17570;0.000;0.000;2023-03-19T04:09:03;97572.32;;;12.36;35.88
30856;BME280;17570;0.000;0.000;2023-03-19T04:11:31;97581.78;;;12.37;35.66
30856;BME280;17570;0.000;0.000;2023-03-19T04:13:59;97582.13;;;12.33;35.56
30856;BME280;17570;0.000;0.000;2023-03-19T04:16:30;97588.86;;;12.35;35.74
30856;BME280;17570;0.000;0.000;2023-03-19T04:18:58;97582.96;;;12.33;35.74
30856;BME280;17570;0.000;0.000;2023-03-19T04:21:26;97587.34;;;12.33;35.70
30856;BME280;17570;0.000;0.000;2023-03-19T04:23:55;97585.56;;;12.33;35.94
30856;BME280;17570;0.000;0.000;2023-03-19T04:26:22;97588.86;;;12.35;35.82
30856;BME280;17570;0.000;0.000;2023-03-19T04:28:50;97588.16;;;12.33;35.85
30856;BME280;17570;0.000;0.000;2023-03-19T04:31:18;97584.61;;;12.34;35.86
30856;BME280;17570;0.000;0.000;2023-03-19T04:33:45;97578.92;;;12.29;35.79
30856;BME280;17570;0.000;0.000;2023-03-19T04:36:13;97580.70;;;12.29;35.89
30856;BME280;17570;0.000;0.000;2023-03-19T04:38:40;97578.11;;;12.29;35.96
30856;BME280;17570;0.000;0.000;2023-03-19T04:41:08;97579.05;;;12.28;36.06
30856;BME280;17570;0.000;0.000;2023-03-19T04:43:38;97574.90;;;12.25;36.12
30856;BME280;17570;0.000;0.000;2023-03-19T04:46:05;97576.08;;;12.21;35.88
30856;BME280;17570;0.000;0.000;2023-03-19T04:48:34;97574.42;;;12.20;36.06
30856;BME280;17570;0.000;0.000;2023-03-19T04:51:04;97567.70;;;12.17;36.11
30856;BME280;17570;0.000;0.000;2023-03-19T04:53:35;97574.30;;;12.10;36.24
30856;BME280;17570;0.000;0.000;2023-03-19T04:56:03;97572.77;;;12.08;36.47
30856;BME280;17570;0.000;0.000;2023-03-19T04:58:32;97567.80;;;12.05;36.29
30856;BME280;17570;0.000;0.000;2023-03-19T05:01:01;97562.72;;;12.03;36.47
30856;BME280;17570;0.000;0.000;2023-03-19T05:03:33;97573.95;;;12.04;36.33
30856;BME280;17570;0.000;0.000;2023-03-19T05:06:02;97571.79;;;11.97;36.34
30856;BME280;17570;0.000;0.000;2023-03-19T05:08:29;97574.52;;;11.96;36.33
30856;BME280;17570;0.000;0.000;2023-03-19T05:10:57;97581.37;;;11.97;36.40
30856;BME280;17570;0.000;0.000;2023-03-19T05:13:26;97575.34;;;11.96;36.34
30856;BME280;17570;0.000;0.000;2023-03-19T05:15:55;97567.66;;;11.95;36.45
30856;BME280;17570;0.000;0.000;2023-03-19T05:18:23;97574.86;;;11.91;36.39
30856;BME280;17570;0.000;0.000;2023-03-19T05:20:52;97577.46;;;11.91;36.54
30856;BME280;17570;0.000;0.000;2023-03-19T05:23:21;97576.16;;;11.86;36.46
30856;BME280;17570;0.000;0.000;2023-03-19T05:25:57;97571.17;;;11.83;36.50
30856;BME280;17570;0.000;0.000;2023-03-19T05:28:31;97568.75;;;11.80;36.53
30856;BME280;17570;0.000;0.000;2023-03-19T05:31:02;97562.55;;;11.82;36.62
30856;BME280;17570;0.000;0.000;2023-03-19T05:33:34;97561.37;;;11.86;36.56
30856;BME280;17570;0.000;0.000;2023-03-19T05:36:03;97554.52;;;11.85;36.69
30856;BME280;17570;0.000;0.000;2023-03-19T05:38:33;97554.17;;;11.90;36.76
30856;BME280;17570;0.000;0.000;2023-03-19T05:41:03;97553.09;;;11.92;36.65
30856;BME280;17570;0.000;0.000;2023-03-19T05:43:36;97546.84;;;11.95;36.99
30856;BME280;17570;0.000;0.000;2023-03-19T05:46:03;97550.15;;;11.97;37.25
30856;BME280;17570;0.000;0.000;2023-03-19T05:48:32;97550.98;;;11.97;37.33
30856;BME280;17570;0.000;0.000;2023-03-19T05:51:00;97552.53;;;12.00;37.25
30856;BME280;17570;0.000;0.000;2023-03-19T05:53:30;97556.56;;;12.04;37.24
30856;BME280;17570;0.000;0.000;2023-03-19T05:56:02;97549.23;;;12.09;37.09
30856;BME280;17570;0.000;0.000;2023-03-19T05:58:31;97554.09;;;12.14;36.72
30856;BME280;17570;0.000;0.000;2023-03-19T06:00:59;97553.61;;;12.20;36.99
30856;BME280;17570;0.000;0.000;2023-03-19T06:03:27;97552.20;;;12.27;36.68
30856;BME280;17570;0.000;0.000;2023-03-19T06:05:56;97551.95;;;12.30;36.76
30856;BME280;17570;0.000;0.000;2023-03-19T06:08:26;97547.94;;;12.37;36.38
30856;BME280;17570;0.000;0.000;2023-03-19T06:10:55;97544.16;;;12.41;36.47
30856;BME280;17570;0.000;0.000;2023-03-19T06:13:23;97547.09;;;12.48;35.98
30856;BME280;17570;0.000;0.000;2023-03-19T06:16:01;97544.86;;;12.55;35.91
30856;BME280;17570;0.000;0.000;2023-03-19T06:18:40;97548.16;;;12.57;35.54
30856;BME280;17570;0.000;0.000;2023-03-19T06:21:09;97538.20;;;12.62;35.31
30856;BME280;17570;0.000;0.000;2023-03-19T06:23:37;97541.17;;;12.68;35.39
30856;BME280;17570;0.000;0.000;2023-03-19T06:26:05;97540.69;;;12.74;35.24
30856;BME280;17570;0.000;0.000;2023-03-19T06:28:34;97538.30;;;12.83;35.14
30856;BME280;17570;0.000;0.000;2023-03-19T06:31:02;97540.28;;;12.90;35.17
30856;BME280;17570;0.000;0.000;2023-03-19T06:33:38;97536.84;;;13.01;34.66
30856;BME280;17570;0.000;0.000;2023-03-19T06:36:06;97541.09;;;13.02;34.68
30856;BME280;17570;0.000;0.000;2023-03-19T06:38:34;97547.35;;;13.11;34.70
30856;BME280;17570;0.000;0.000;2023-03-19T06:41:02;97551.92;;;13.18;34.56
30856;BME280;17570;0.000;0.000;2023-03-19T06:43:29;97548.51;;;13.29;34.16
30856;BME280;17570;0.000;0.000;2023-03-19T06:45:58;97541.59;;;13.39;33.82
30856;BME280;17570;0.000;0.000;2023-03-19T06:48:25;97538.91;;;13.50;33.35
30856;BME280;17570;0.000;0.000;2023-03-19T06:50:53;97534.59;;;13.61;32.91
30856;BME280;17570;0.000;0.000;2023-03-19T06:53:20;97537.64;;;13.66;33.24
30856;BME280;17570;0.000;0.000;2023-03-19T06:55:48;97539.87;;;13.70;32.90
30856;BME280;17570;0.000;0.000;2023-03-19T06:58:15;97542.92;;;13.75;32.51
30856;BME280;17570;0.000;0.000;2023-03-19T07:00:43;97533.50;;;13.84;32.43
30856;BME280;17570;0.000;0.000;2023-03-19T07:03:10;97529.19;;;13.94;32.93
30856;BME280;17570;0.000;0.000;2023-03-19T07:05:38;97537.46;;;13.99;32.18
30856;BME280;17570;0.000;0.000;2023-03-19T07:08:06;97527.56;;;14.03;31.65
30856;BME280;17570;0.000;0.000;2023-03-19T07:10:35;97525.72;;;14.15;31.61
30856;BME280;17570;0.000;0.000;2023-03-19T07:13:03;97522.72;;;14.19;31.56
30856;BME280;17570;0.000;0.000;2023-03-19T07:15:30;97521.50;;;14.23;31.52
30856;BME280;17570;0.000;0.000;2023-03-19T07:17:58;97514.67;;;14.32;31.57
30856;BME280;17570;0.000;0.000;2023-03-19T07:20:26;97521.28;;;14.36;31.46
30856;BME280;17570;0.000;0.000;2023-03-19T07:22:54;97514.30;;;14.46;31.28
30856;BME280;17570;0.000;0.000;2023-03-19T07:25:21;97507.29;;;14.47;31.23
30856;BME280;17570;0.000;0.000;2023-03-19T07:27:49;97507.89;;;14.50;31.32
30856;BME280;17570;0.000;0.000;2023-03-19T07:30:19;97500.19;;;14.59;31.46
30856;BME280;17570;0.000;0.000;2023-03-19T07:32:47;97503.39;;;14.72;31.42
30856;BME280;17570;0.000;0.000;2023-03-19T07:35:14;97504.62;;;14.77;31.00
30856;BME280;17570;0.000;0.000;2023-03-19T07:37:44;97496.27;;;14.84;30.90
30856;BME280;17570;0.000;0.000;2023-03-19T07:40:11;97498.33;;;14.90;30.84
30856;BME280;17570;0.000;0.000;2023-03-19T07:42:39;97495.98;;;14.96;30.51
30856;BME280;17570;0.000;0.000;2023-03-19T07:45:07;97499.46;;;15.07;30.57
30856;BME280;17570;0.000;0.000;2023-03-19T07:47:34;97492.55;;;15.15;30.74
30856;BME280;17570;0.000;0.000;2023-03-19T07:50:02;97498.23;;;15.20;30.51
30856;BME280;17570;0.000;0.000;2023-03-19T07:52:29;97482.80;;;15.27;30.81
30856;BME280;17570;0.000;0.000;2023-03-19T07:54:57;97488.69;;;15.39;30.96
30856;BME280;17570;0.000;0.000;2023-03-19T07:57:24;97494.21;;;15.45;30.95
30856;BME280;17570;0.000;0.000;2023-03-19T07:59:52;97490.05;;;15.52;30.30
30856;BME280;17570;0.000;0.000;2023-03-19T08:02:20;97485.93;;;15.60;31.24
30856;BME280;17570;0.000;0.000;2023-03-19T08:04:47;97494.77;;;15.68;30.53
30856;BME280;17570;0.000;0.000;2023-03-19T08:07:14;97485.52;;;15.74;30.30
30856;BME280;17570;0.000;0.000;2023-03-19T08:09:42;97487.71;;;15.78;30.57
30856;BME280;17570;0.000;0.000;2023-03-19T08:12:10;97484.39;;;15.86;30.94
30856;BME280;17570;0.000;0.000;2023-03-19T08:14:39;97482.84;;;15.93;30.75
30856;BME280;17570;0.000;0.000;2023-03-19T08:17:06;97486.25;;;16.03;31.11
30856;BME280;17570;0.000;0.000;2023-03-19T08:22:20;97482.34;;;16.17;30.86
30856;BME280;17570;0.000;0.000;2023-03-19T08:24:49;97486.75;;;16.17;31.03
30856;BME280;17570;0.000;0.000;2023-03-19T08:27:17;97491.13;;;16.26;31.05
30856;BME280;17570;0.000;0.000;2023-03-19T08:29:44;97483.23;;;16.36;30.77
30856;BME280;17570;0.000;0.000;2023-03-19T08:32:12;97482.07;;;16.48;30.85
30856;BME280;17570;0.000;0.000;2023-03-19T08:34:39;97483.66;;;16.58;30.78
30856;BME280;17570;0.000;0.000;2023-03-19T08:37:08;97481.67;;;16.70;30.72
30856;BME280;17570;0.000;0.000;2023-03-19T08:39:35;97474.88;;;16.77;30.72
30856;BME280;17570;0.000;0.000;2023-03-19T08:42:03;97473.99;;;16.87;30.51
30856;BME280;17570;0.000;0.000;2023-03-19T08:44:31;97472.56;;;16.92;30.30
30856;BME280;17570;0.000;0.000;2023-03-19T08:46:58;97464.95;;;16.99;30.49
30856;BME280;17570;0.000;0.000;2023-03-19T08:49:26;97465.98;;;17.06;30.41
30856;BME280;17570;0.000;0.000;2023-03-19T08:51:53;97467.33;;;17.10;30.34
30856;BME280;17570;0.000;0.000;2023-03-19T08:54:21;97461.34;;;17.18;30.61
30856;BME280;17570;0.000;0.000;2023-03-19T08:56:48;97458.10;;;17.24;30.15
30856;BME280;17570;0.000;0.000;2023-03-19T08:59:16;97459.00;;;17.32;30.16
30856;BME280;17570;0.000;0.000;2023-03-19T09:01:43;97457.56;;;17.38;29.99
30856;BME280;17570;0.000;0.000;2023-03-19T09:04:11;97448.77;;;17.47;30.19
30856;BME280;17570;0.000;0.000;2023-03-19T09:06:38;97447.48;;;17.51;30.00
30856;BME280;17570;0.000;0.000;2023-03-19T09:09:06;97439.84;;;17.58;29.81
30856;BME280;17570;0.000;0.000;2023-03-19T09:11:33;97437.94;;;17.68;29.91
30856;BME280;17570;0.000;0.000;2023-03-19T09:14:01;97442.29;;;17.77;29.46
30856;BME280;17570;0.000;0.000;2023-03-19T09:16:28;97430.69;;;17.88;29.39
30856;BME280;17570;0.000;0.000;2023-03-19T09:18:56;97456.17;;;17.96;29.30
30856;BME280;17570;0.000;0.000;2023-03-19T09:21:24;97439.97;;;18.08;29.20
30856;BME280;17570;0.000;0.000;2023-03-19T09:26:35;97433.80;;;18.26;29.08
30856;BME280;17570;0.000;0.000;2023-03-19T09:29:03;97432.00;;;18.26;28.65
30856;BME280;17570;0.000;0.000;2023-03-19T09:31:30;97418.11;;;18.42;28.68
30856;BME280;17570;0.000;0.000;2023-03-19T09:33:58;97421.24;;;18.54;28.65
30856;BME280;17570;0.000;0.000;2023-03-19T09:36:25;97431.45;;;18.65;28.05
30856;BME280;17570;0.000;0.000;2023-03-19T09:38:53;97411.96;;;18.76;28.26
30856;BME280;17570;0.000;0.000;2023-03-19T09:44:03;97419.38;;;19.05;27.98
30856;BME280;17570;0.000;0.000;2023-03-19T09:49:11;97410.83;;;19.19;28.05
30856;BME280;17570;0.000;0.000;2023-03-19T09:51:52;97412.29;;;19.30;28.66
30856;BME280;17570;0.000;0.000;2023-03-19T09:56:49;97405.53;;;19.52;29.03
30856;BME280;17570;0.000;0.000;2023-03-19T09:59:16;97402.73;;;19.70;28.60
30856;BME280;17570;0.000;0.000;2023-03-19T10:01:46;97394.95;;;19.84;28.64
30856;BME280;17570;0.000;0.000;2023-03-19T10:07:07;97388.61;;;20.10;28.68
30856;BME280;17570;0.000;0.000;2023-03-19T10:12:25;97395.27;;;20.29;29.81
30856;BME280;17570;0.000;0.000;2023-03-19T10:15:09;97389.12;;;20.36;29.46
30856;BME280;17570;0.000;0.000;2023-03-19T10:17:37;97381.69;;;20.40;29.60
30856;BME280;17570;0.000;0.000;2023-03-19T10:20:04;97380.97;;;20.54;29.19
30856;BME280;17570;0.000;0.000;2023-03-19T10:22:35;97377.82;;;20.82;28.80
30856;BME280;17570;0.000;0.000;2023-03-19T10:25:02;97377.81;;;21.05;28.70
30856;BME280;17570;0.000;0.000;2023-03-19T10:27:30;97371.84;;;21.26;28.99
30856;BME280;17570;0.000;0.000;2023-03-19T10:29:58;97362.45;;;21.46;28.44
30856;BME280;17570;0.000;0.000;2023-03-19T10:32:27;97361.36;;;21.70;28.38
30856;BME280;17570;0.000;0.000;2023-03-19T10:34:57;97358.63;;;21.93;27.97
30856;BME280;17570;0.000;0.000;2023-03-19T10:37:27;97346.48;;;22.13;27.82
30856;BME280;17570;0.000;0.000;2023-03-19T10:39:56;97346.34;;;22.36;27.67
30856;BME280;17570;0.000;0.000;2023-03-19T10:45:13;97326.84;;;22.80;26.98
30856;BME280;17570;0.000;0.000;2023-03-19T10:47:38;97324.15;;;22.95;26.57
30856;BME280;17570;0.000;0.000;2023-03-19T10:50:18;97322.70;;;23.21;26.26
30856;BME280;17570;0.000;0.000;2023-03-19T10:52:37;97319.19;;;23.41;25.54
30856;BME280;17570;0.000;0.000;2023-03-19T10:55:16;97312.97;;;23.62;25.32
30856;BME280;17570;0.000;0.000;2023-03-19T10:57:35;97314.55;;;23.85;25.11
30856;BME280;17570;0.000;0.000;2023-03-19T11:00:13;97308.11;;;24.07;24.97
30856;BME280;17570;0.000;0.000;2023-03-19T11:02:36;97307.56;;;24.32;24.83
30856;BME280;17570;0.000;0.000;2023-03-19T11:07:41;97301.33;;;24.79;24.37
30856;BME280;17570;0.000;0.000;2023-03-19T11:10:11;97300.92;;;25.02;24.15
30856;BME280;17570;0.000;0.000;2023-03-19T11:12:37;97298.88;;;25.31;23.98
30856;BME280;17570;0.000;0.000;2023-03-19T11:15:13;97300.45;;;25.58;23.67
30856;BME280;17570;0.000;0.000;2023-03-19T11:17:37;97297.30;;;25.88;23.42
30856;BME280;17570;0.000;0.000;2023-03-19T11:22:43;97294.62;;;26.39;22.74
30856;BME280;17570;0.000;0.000;2023-03-19T11:25:22;97292.89;;;26.58;22.88
30856;BME280;17570;0.000;0.000;2023-03-19T11:27:58;97283.64;;;26.86;22.29
30856;BME280;17570;0.000;0.000;2023-03-19T11:30:31;97282.45;;;27.07;22.29
30856;BME280;17570;0.000;0.000;2023-03-19T11:34:02;97289.19;;;27.34;22.17
30856;BME280;17570;0.000;0.000;2023-03-19T11:35:38;97280.25;;;27.65;21.78
30856;BME280;17570;0.000;0.000;2023-03-19T11:38:05;97267.41;;;27.92;21.72
30856;BME280;17570;0.000;0.000;2023-03-19T11:44:01;97259.66;;;28.63;21.36
30856;BME280;17570;0.000;0.000;2023-03-19T11:46:31;97253.66;;;28.91;20.81
30856;BME280;17570;0.000;0.000;2023-03-19T11:51:51;97249.26;;;29.43;20.67
30856;BME280;17570;0.000;0.000;2023-03-19T11:56:54;97242.31;;;29.83;20.36
30856;BME280;17570;0.000;0.000;2023-03-19T12:02:10;97241.53;;;30.56;19.42
30856;BME280;17570;0.000;0.000;2023-03-19T12:09:34;97230.02;;;31.45;18.44
30856;BME280;17570;0.000;0.000;2023-03-19T15:37:38;97160.70;;;23.17;27.22
30856;BME280;17570;0.000;0.000;2023-03-19T15:40:06;97162.05;;;24.22;25.80
30856;BME280;17570;0.000;0.000;2023-03-19T15:42:35;97161.05;;;25.41;25.83
30856;BME280;17570;0.000;0.000;2023-03-19T15:45:06;97164.30;;;25.94;25.24
30856;BME280;17570;0.000;0.000;2023-03-19T15:47:37;97160.45;;;26.15;24.31
30856;BME280;17570;0.000;0.000;2023-03-19T15:50:06;97170.09;;;26.16;24.23
30856;BME280;17570;0.000;0.000;2023-03-19T15:52:35;97168.91;;;26.06;24.06
30856;BME280;17570;0.000;0.000;2023-03-19T15:55:03;97170.20;;;25.97;24.01
30856;BME280;17570;0.000;0.000;2023-03-19T15:57:35;97179.34;;;25.76;24.42
30856;BME280;17570;0.000;0.000;2023-03-19T16:00:06;97182.25;;;25.61;24.19
30856;BME280;17570;0.000;0.000;2023-03-19T16:02:40;97176.99;;;25.48;24.58
30856;BME280;17570;0.000;0.000;2023-03-19T16:05:24;97183.57;;;25.38;24.41
30856;BME280;17570;0.000;0.000;2023-03-19T16:07:53;97178.89;;;25.27;24.60
30856;BME280;17570;0.000;0.000;2023-03-19T16:12:56;97189.14;;;25.04;24.73
30856;BME280;17570;0.000;0.000;2023-03-19T16:15:35;97191.64;;;24.92;24.93
30856;BME280;17570;0.000;0.000;2023-03-19T16:18:24;97194.94;;;24.81;25.01
30856;BME280;17570;0.000;0.000;2023-03-19T16:20:31;97198.83;;;24.72;25.22
30856;BME280;17570;0.000;0.000;2023-03-19T16:23:00;97206.99;;;24.63;25.06
30856;BME280;17570;0.000;0.000;2023-03-19T16:25:28;97210.24;;;24.52;25.41
30856;BME280;17570;0.000;0.000;2023-03-19T16:27:57;97209.42;;;24.38;25.61
30856;BME280;17570;0.000;0.000;2023-03-19T16:30:27;97208.59;;;24.31;25.85
30856;BME280;17570;0.000;0.000;2023-03-19T16:33:00;97215.10;;;24.22;26.01
30856;BME280;17570;0.000;0.000;2023-03-19T16:35:35;97216.70;;;24.10;26.08
30856;BME280;17570;0.000;0.000;2023-03-19T16:40:49;97223.98;;;23.81;26.58
30856;BME280;17570;0.000;0.000;2023-03-19T16:43:17;97226.92;;;23.58;27.03
30856;BME280;17570;0.000;0.000;2023-03-19T16:45:48;97231.78;;;23.48;27.40
30856;BME280;17570;0.000;0.000;2023-03-19T16:48:14;97234.41;;;23.41;27.47
30856;BME280;17570;0.000;0.000;2023-03-19T16:50:41;97231.86;;;23.27;27.69
30856;BME280;17570;0.000;0.000;2023-03-19T16:53:21;97235.45;;;23.12;27.52
30856;BME280;17570;0.000;0.000;2023-03-19T16:55:48;97238.98;;;22.91;28.09
30856;BME280;17570;0.000;0.000;2023-03-19T16:58:17;97242.86;;;22.68;28.45
30856;BME280;17570;0.000;0.000;2023-03-19T17:00:46;97250.23;;;22.51;28.64
30856;BME280;17570;0.000;0.000;2023-03-19T17:03:15;97253.65;;;22.45;28.71
30856;BME280;17570;0.000;0.000;2023-03-19T17:05:44;97255.97;;;22.33;28.86
30856;BME280;17570;0.000;0.000;2023-03-19T17:08:12;97256.11;;;22.25;29.04
30856;BME280;17570;0.000;0.000;2023-03-19T17:10:44;97262.53;;;22.15;29.46
30856;BME280;17570;0.000;0.000;2023-03-19T17:13:26;97267.53;;;22.10;29.49
30856;BME280;17570;0.000;0.000;2023-03-19T17:16:01;97275.87;;;21.93;29.77
30856;BME280;17570;0.000;0.000;2023-03-19T17:18:25;97275.25;;;21.76;29.88
30856;BME280;17570;0.000;0.000;2023-03-19T17:20:56;97276.71;;;21.63;30.10
30856;BME280;17570;0.000;0.000;2023-03-19T17:23:22;97278.20;;;21.51;30.10
30856;BME280;17570;0.000;0.000;2023-03-19T17:25:51;97278.48;;;21.42;30.14
30856;BME280;17570;0.000;0.000;2023-03-19T17:28:21;97282.02;;;21.34;30.37
30856;BME280;17570;0.000;0.000;2023-03-19T17:30:49;97283.45;;;21.22;30.43
30856;BME280;17570;0.000;0.000;2023-03-19T17:33:28;97286.17;;;21.13;30.64
30856;BME280;17570;0.000;0.000;2023-03-19T17:35:54;97288.42;;;21.02;30.69